createdAt,value
2017-11-09T00:00:04.311Z,50.20
2017-11-09T00:02:32.796Z,39.30
2017-11-09T00:05:05.933Z,45.23
2017-11-09T00:07:33.447Z,46.73
2017-11-09T00:10:00.939Z,44.70
2017-11-09T00:12:28.404Z,51.37
2017-11-09T00:14:56.045Z,42.70
2017-11-09T00:17:23.547Z,42.40
2017-11-09T00:19:51.033Z,41.03
2017-11-09T00:22:18.518Z,47.80
2017-11-09T00:24:45.965Z,27.57
2017-11-09T00:27:13.431Z,30.40
2017-11-09T00:29:40.906Z,28.90
2017-11-09T00:32:08.402Z,22.63
2017-11-09T00:34:35.894Z,20.80
2017-11-09T00:37:03.362Z,25.93
2017-11-09T00:39:30.827Z,19.57
2017-11-09T00:41:58.313Z,20.47
2017-11-09T00:44:25.806Z,20.93
2017-11-09T00:46:54.707Z,28.93
2017-11-09T00:49:22.169Z,27.43
2017-11-09T00:51:49.665Z,46.03
2017-11-09T00:54:17.152Z,40.43
2017-11-09T00:56:44.619Z,45.47
2017-11-09T00:59:12.172Z,43.30
2017-11-09T01:01:39.630Z,47.27
2017-11-09T01:04:07.103Z,40.57
2017-11-09T01:06:34.595Z,35.13
2017-11-09T01:09:02.064Z,44.30
2017-11-09T01:11:29.533Z,38.83
2017-11-09T01:13:57.016Z,32.83
2017-11-09T01:16:24.528Z,37.87
2017-11-09T01:18:52.038Z,30.87
2017-11-09T01:21:19.519Z,37.63
2017-11-09T01:23:47.001Z,28.80
2017-11-09T01:26:14.575Z,29.33
2017-11-09T01:28:42.058Z,30.03
2017-11-09T01:31:09.531Z,25.60
2017-11-09T01:33:37.017Z,23.03
2017-11-09T01:36:04.501Z,21.97
2017-11-09T01:38:32.045Z,22.13
2017-11-09T01:40:59.544Z,20.03
2017-11-09T01:43:27.068Z,20.37
2017-11-09T01:45:54.545Z,20.73
2017-11-09T01:48:22.028Z,20.10
2017-11-09T01:50:49.552Z,20.30
2017-11-09T01:53:17.045Z,21.23
2017-11-09T01:55:44.526Z,19.47
2017-11-09T01:58:11.997Z,17.27
2017-11-09T02:00:40.532Z,19.00
2017-11-09T02:03:08.040Z,18.93
2017-11-09T02:05:35.532Z,18.40
2017-11-09T02:08:03.216Z,19.17
2017-11-09T02:10:30.696Z,21.63
2017-11-09T02:12:58.165Z,19.40
2017-11-09T02:15:25.649Z,19.27
2017-11-09T02:17:53.130Z,19.40
2017-11-09T02:20:20.649Z,18.53
2017-11-09T02:22:48.122Z,20.13
2017-11-09T02:25:15.621Z,21.33
2017-11-09T02:27:43.102Z,21.13
2017-11-09T02:30:10.601Z,21.73
2017-11-09T02:32:38.074Z,18.60
2017-11-09T02:35:05.601Z,22.07
2017-11-09T02:37:33.083Z,21.10
2017-11-09T02:40:00.564Z,19.23
2017-11-09T02:42:28.070Z,21.73
2017-11-09T02:44:58.174Z,21.07
2017-11-09T02:47:25.667Z,23.00
2017-11-09T02:49:53.165Z,22.73
2017-11-09T02:52:20.638Z,20.10
2017-11-09T02:54:48.127Z,20.47
2017-11-09T02:57:15.598Z,24.00
2017-11-09T02:59:43.113Z,21.93
2017-11-09T03:02:10.575Z,25.90
2017-11-09T03:04:38.082Z,25.07
2017-11-09T03:07:07.263Z,20.47
2017-11-09T03:09:34.733Z,22.20
2017-11-09T03:12:02.221Z,21.90
2017-11-09T03:14:30.560Z,20.83
2017-11-09T03:16:58.023Z,24.43
2017-11-09T03:19:25.513Z,23.93
2017-11-09T03:21:52.969Z,23.07
2017-11-09T03:24:20.426Z,24.60
2017-11-09T03:26:47.907Z,23.07
2017-11-09T03:29:15.364Z,24.43
2017-11-09T03:31:42.837Z,20.90
2017-11-09T03:34:10.652Z,21.57
2017-11-09T03:36:39.263Z,24.30
2017-11-09T03:39:06.748Z,21.00
2017-11-09T03:41:34.277Z,26.17
2017-11-09T03:44:01.735Z,23.50
2017-11-09T03:46:29.228Z,22.77
2017-11-09T03:48:56.698Z,20.97
2017-11-09T03:51:24.229Z,26.40
2017-11-09T03:53:51.702Z,26.03
2017-11-09T03:56:19.196Z,23.73
2017-11-09T03:58:46.717Z,25.90
2017-11-09T04:01:14.190Z,25.93
2017-11-09T04:03:41.676Z,22.10
2017-11-09T04:06:09.148Z,22.07
2017-11-09T04:08:36.603Z,25.90
2017-11-09T04:11:04.139Z,24.57
2017-11-09T04:13:31.634Z,23.63
2017-11-09T04:15:59.100Z,22.40
2017-11-09T04:18:26.600Z,24.10
2017-11-09T04:20:54.068Z,25.00
2017-11-09T04:23:21.548Z,21.43
2017-11-09T04:25:49.055Z,27.17
2017-11-09T04:28:16.520Z,25.57
2017-11-09T04:30:43.989Z,25.43
2017-11-09T04:33:11.473Z,27.73
2017-11-09T04:35:38.961Z,26.97
2017-11-09T04:38:06.428Z,28.60
2017-11-09T04:40:33.902Z,23.60
2017-11-09T04:43:01.363Z,28.07
2017-11-09T04:45:28.843Z,23.43
2017-11-09T04:47:56.306Z,27.30
2017-11-09T04:50:23.775Z,25.20
2017-11-09T04:52:51.254Z,28.40
2017-11-09T04:55:18.800Z,26.43
2017-11-09T04:57:46.290Z,21.77
2017-11-09T05:00:13.782Z,27.07
2017-11-09T05:02:41.254Z,30.30
2017-11-09T05:05:08.736Z,25.37
2017-11-09T05:07:36.211Z,24.40
2017-11-09T05:10:05.049Z,28.07
2017-11-09T05:12:32.511Z,25.60
2017-11-09T05:15:00.161Z,26.70
2017-11-09T05:17:27.625Z,28.60
2017-11-09T05:19:55.098Z,25.17
2017-11-09T05:22:22.579Z,29.67
2017-11-09T05:24:50.101Z,29.37
2017-11-09T05:27:17.573Z,31.90
2017-11-09T05:29:45.056Z,27.70
2017-11-09T05:32:12.566Z,30.67
2017-11-09T05:34:40.047Z,26.80
2017-11-09T05:37:07.518Z,25.87
2017-11-09T05:39:35.093Z,35.50
2017-11-09T05:42:02.594Z,27.07
2017-11-09T05:44:30.085Z,25.53
2017-11-09T05:46:57.615Z,26.83
2017-11-09T05:49:25.075Z,30.63
2017-11-09T05:51:52.555Z,35.60
2017-11-09T05:54:20.035Z,30.30
2017-11-09T05:56:47.521Z,30.00
2017-11-09T05:59:15.000Z,28.50
2017-11-09T06:01:42.540Z,30.03
2017-11-09T06:04:10.008Z,29.37
2017-11-09T06:06:39.973Z,31.20
2017-11-09T06:09:07.530Z,30.53
2017-11-09T06:11:34.986Z,29.97
2017-11-09T06:14:02.476Z,34.17
2017-11-09T06:16:29.963Z,29.23
2017-11-09T06:18:57.427Z,25.23
2017-11-09T06:21:24.907Z,31.03
2017-11-09T06:23:52.469Z,25.93
2017-11-09T06:26:19.933Z,29.80
2017-11-09T06:28:47.392Z,29.50
2017-11-09T06:31:14.885Z,31.37
2017-11-09T06:33:42.352Z,29.30
2017-11-09T06:36:09.939Z,29.90
2017-11-09T06:38:37.418Z,31.20
2017-11-09T06:41:04.917Z,31.20
2017-11-09T06:43:32.415Z,33.70
2017-11-09T06:45:59.929Z,32.77
2017-11-09T06:48:27.571Z,30.97
2017-11-09T06:50:55.302Z,28.83
2017-11-09T06:53:22.777Z,30.97
2017-11-09T06:55:50.322Z,30.60
2017-11-09T06:58:17.795Z,31.37
2017-11-09T07:00:45.288Z,28.33
2017-11-09T07:03:12.740Z,29.57
2017-11-09T07:05:40.235Z,30.27
2017-11-09T07:08:07.715Z,35.97
2017-11-09T07:10:35.189Z,27.53
2017-11-09T07:13:02.655Z,28.83
2017-11-09T07:15:30.247Z,30.73
2017-11-09T07:17:57.709Z,30.43
2017-11-09T07:20:25.181Z,29.90
2017-11-09T07:22:52.691Z,30.83
2017-11-09T07:25:20.225Z,36.17
2017-11-09T07:27:47.761Z,33.40
2017-11-09T07:30:15.256Z,32.87
2017-11-09T07:32:42.715Z,32.50
2017-11-09T07:35:10.186Z,35.03
2017-11-09T07:37:37.663Z,31.03
2017-11-09T07:40:05.134Z,34.90
2017-11-09T07:42:32.687Z,35.13
2017-11-09T07:45:00.745Z,32.60
2017-11-09T07:47:28.211Z,33.43
2017-11-09T07:49:55.678Z,28.40
2017-11-09T07:52:23.179Z,30.00
2017-11-09T07:54:50.661Z,29.87
2017-11-09T07:57:18.138Z,24.43
2017-11-09T07:59:45.606Z,31.97
2017-11-09T08:02:13.089Z,32.77
2017-11-09T08:04:40.542Z,29.53
2017-11-09T08:07:08.139Z,30.70
2017-11-09T08:09:35.625Z,37.37
2017-11-09T08:12:03.124Z,30.80
2017-11-09T08:14:30.613Z,33.80
2017-11-09T08:16:58.258Z,28.10
2017-11-09T08:19:25.735Z,30.43
2017-11-09T08:21:53.212Z,27.23
2017-11-09T08:24:22.740Z,33.00
2017-11-09T08:26:52.511Z,29.07
2017-11-09T08:29:22.522Z,32.37
2017-11-09T08:31:53.363Z,32.17
2017-11-09T08:34:20.848Z,27.70
2017-11-09T08:36:49.689Z,31.20
2017-11-09T08:39:17.175Z,29.87
2017-11-09T08:41:44.682Z,28.27
2017-11-09T08:44:12.199Z,31.07
2017-11-09T08:46:39.662Z,25.90
2017-11-09T08:49:07.407Z,29.90
2017-11-09T08:51:34.905Z,43.60
2017-11-09T08:54:02.387Z,25.97
2017-11-09T08:56:29.917Z,29.13
2017-11-09T08:58:57.520Z,32.53
2017-11-09T09:01:24.981Z,31.20
2017-11-09T09:03:52.450Z,28.77
2017-11-09T09:06:19.935Z,30.00
2017-11-09T09:08:47.414Z,29.00
2017-11-09T09:11:14.914Z,33.67
2017-11-09T09:13:42.490Z,26.93
2017-11-09T09:16:09.951Z,29.60
2017-11-09T09:18:37.836Z,28.80
2017-11-09T09:21:06.808Z,31.60
2017-11-09T09:23:34.322Z,27.73
2017-11-09T09:29:23.485Z,28.60
2017-11-09T09:31:50.966Z,27.70
2017-11-09T09:37:27.923Z,31.10
2017-11-09T09:39:58.922Z,27.53
2017-11-09T09:42:26.502Z,29.80
2017-11-09T09:44:53.993Z,27.97
2017-11-09T09:47:21.472Z,29.87
2017-11-09T09:49:48.976Z,31.03
2017-11-09T09:52:16.483Z,29.47
2017-11-09T09:54:43.969Z,30.87
2017-11-09T09:57:11.455Z,28.70
2017-11-09T09:59:38.991Z,28.70
2017-11-09T10:02:06.509Z,27.50
2017-11-09T10:04:34.019Z,33.43
2017-11-09T10:07:01.511Z,28.60
2017-11-09T10:09:29.022Z,32.60
2017-11-09T10:11:56.511Z,35.87
2017-11-09T10:14:23.994Z,29.73
2017-11-09T10:16:51.502Z,29.60
2017-11-09T10:19:18.966Z,28.40
2017-11-09T10:21:46.473Z,28.17
2017-11-09T10:24:13.936Z,37.13
2017-11-09T10:26:41.387Z,31.80
2017-11-09T10:29:08.870Z,31.80
2017-11-09T10:31:36.390Z,26.80
2017-11-09T10:34:03.861Z,25.60
2017-11-09T10:36:31.391Z,25.57
2017-11-09T10:38:58.884Z,26.93
2017-11-09T10:41:26.344Z,25.53
2017-11-09T10:43:53.875Z,32.07
2017-11-09T10:46:21.351Z,28.60
2017-11-09T10:48:48.817Z,30.93
2017-11-09T10:51:16.332Z,37.83
2017-11-09T10:53:43.862Z,31.30
2017-11-09T10:56:11.342Z,32.30
2017-11-09T10:58:38.830Z,36.97
2017-11-09T11:01:09.530Z,31.40
2017-11-09T11:03:37.031Z,29.77
2017-11-09T11:06:04.524Z,28.00
2017-11-09T11:08:32.018Z,34.30
2017-11-09T11:10:59.549Z,31.50
2017-11-09T11:13:27.052Z,33.07
2017-11-09T11:15:54.555Z,28.80
2017-11-09T11:18:22.054Z,31.07
2017-11-09T11:20:49.568Z,33.40
2017-11-09T11:23:17.086Z,37.57
2017-11-09T11:25:44.559Z,29.77
2017-11-09T11:28:12.093Z,33.13
2017-11-09T11:30:39.834Z,34.33
2017-11-09T11:33:07.356Z,28.80
2017-11-09T11:35:34.886Z,31.23
2017-11-09T11:38:02.361Z,33.73
2017-11-09T11:40:29.853Z,36.93
2017-11-09T11:42:57.358Z,37.03
2017-11-09T11:45:24.824Z,33.30
2017-11-09T11:48:02.954Z,35.80
2017-11-09T11:50:30.437Z,40.23
2017-11-09T11:52:57.926Z,35.90
2017-11-09T11:55:25.448Z,34.80
2017-11-09T11:57:52.951Z,31.30
2017-11-09T12:00:20.449Z,31.97
2017-11-09T12:02:47.995Z,32.30
2017-11-09T12:05:16.423Z,29.00
2017-11-09T12:07:43.916Z,32.70
2017-11-09T12:10:11.401Z,29.13
2017-11-09T12:12:39.675Z,28.70
2017-11-09T12:15:07.179Z,29.40
2017-11-09T12:17:34.740Z,26.63
2017-11-09T12:20:02.221Z,22.30
2017-11-09T12:22:32.347Z,28.97
2017-11-09T12:24:59.868Z,25.37
2017-11-09T12:27:28.079Z,24.57
2017-11-09T12:29:55.554Z,24.00
2017-11-09T12:32:23.055Z,24.50
2017-11-09T12:34:50.560Z,23.10
2017-11-09T12:37:18.057Z,26.37
2017-11-09T12:39:45.551Z,32.00
2017-11-09T12:42:13.058Z,30.57
2017-11-09T12:44:40.599Z,19.17
2017-11-09T12:47:08.154Z,21.20
2017-11-09T12:49:35.881Z,22.50
2017-11-09T12:52:03.402Z,18.27
2017-11-09T12:54:31.119Z,15.50
2017-11-09T12:56:59.594Z,16.60
2017-11-09T12:59:27.067Z,16.90
2017-11-09T13:01:54.574Z,14.07
2017-11-09T13:04:22.055Z,13.40
2017-11-09T13:06:49.630Z,12.13
2017-11-09T13:09:17.123Z,11.00
2017-11-09T13:11:44.717Z,11.73
2017-11-09T13:14:12.203Z,10.87
2017-11-09T13:16:39.730Z,11.47
2017-11-09T13:19:07.306Z,18.83
2017-11-09T13:21:34.850Z,10.60
2017-11-09T13:24:02.415Z,10.50
2017-11-09T13:26:30.346Z,11.57
2017-11-09T13:28:57.841Z,12.10
2017-11-09T13:31:25.401Z,10.67
2017-11-09T13:33:52.901Z,13.30
2017-11-09T13:36:20.425Z,14.50
2017-11-09T13:38:47.999Z,14.37
2017-11-09T13:41:15.480Z,12.27
2017-11-09T13:43:43.011Z,14.70
2017-11-09T13:46:10.853Z,12.30
2017-11-09T13:48:39.592Z,11.70
2017-11-09T13:51:07.121Z,13.37
2017-11-09T13:53:34.928Z,20.30
2017-11-09T13:56:02.531Z,13.40
2017-11-09T13:58:30.027Z,11.47
2017-11-09T14:00:57.529Z,13.33
2017-11-09T14:03:25.021Z,11.83
2017-11-09T14:05:52.508Z,14.00
2017-11-09T14:08:20.006Z,14.10
2017-11-09T14:10:47.486Z,11.60
2017-11-09T14:13:15.005Z,13.50
2017-11-09T14:15:42.583Z,13.37
2017-11-09T14:18:10.060Z,18.33
2017-11-09T14:20:37.548Z,15.60
2017-11-09T14:23:05.049Z,12.53
2017-11-09T14:25:32.579Z,14.10
2017-11-09T14:28:00.087Z,17.00
2017-11-09T14:30:27.588Z,14.93
2017-11-09T14:32:55.080Z,20.50
2017-11-09T14:35:22.562Z,25.10
2017-11-09T14:37:52.575Z,19.60
2017-11-09T14:40:22.770Z,17.77
2017-11-09T14:42:50.245Z,20.87
2017-11-09T14:45:17.739Z,17.33
2017-11-09T14:47:45.221Z,27.20
2017-11-09T14:50:12.715Z,24.03
2017-11-09T14:52:40.232Z,32.53
2017-11-09T14:57:41.640Z,24.67
2017-11-09T15:00:09.116Z,30.43
2017-11-09T15:02:36.592Z,35.90
2017-11-09T15:05:04.108Z,30.03
2017-11-09T15:07:31.641Z,31.30
2017-11-09T15:09:59.191Z,27.37
2017-11-09T15:12:26.684Z,36.97
2017-11-09T15:14:54.198Z,35.77
2017-11-09T15:17:21.722Z,40.33
2017-11-09T15:19:49.215Z,28.17
2017-11-09T15:22:16.702Z,24.53
2017-11-09T15:24:47.096Z,25.93
2017-11-09T15:27:14.641Z,31.53
2017-11-09T15:29:42.150Z,26.87
2017-11-09T15:32:11.469Z,24.97
2017-11-09T15:34:38.958Z,26.73
2017-11-09T15:37:06.578Z,25.83
2017-11-09T15:39:34.056Z,28.80
2017-11-09T15:42:01.546Z,29.40
2017-11-09T15:44:29.139Z,25.00
2017-11-09T15:46:57.375Z,28.90
2017-11-09T15:49:24.907Z,25.57
2017-11-09T15:51:52.400Z,25.50
2017-11-09T15:54:19.885Z,24.87
2017-11-09T15:56:47.368Z,23.40
2017-11-09T15:59:14.863Z,24.47
2017-11-09T16:01:42.329Z,26.37
2017-11-09T16:04:09.855Z,26.03
2017-11-09T16:06:38.380Z,24.90
2017-11-09T16:09:05.873Z,24.30
2017-11-09T16:11:33.381Z,24.37
2017-11-09T16:14:00.887Z,28.23
2017-11-09T16:16:28.515Z,23.20
2017-11-09T16:18:56.006Z,27.77
2017-11-09T16:21:23.483Z,24.70
2017-11-09T16:23:53.789Z,27.53
2017-11-09T16:26:21.278Z,27.50
2017-11-09T16:28:48.749Z,25.10
2017-11-09T16:31:16.232Z,28.13
2017-11-09T16:33:43.733Z,24.53
2017-11-09T16:36:11.203Z,25.20
2017-11-09T16:38:38.703Z,29.27
2017-11-09T16:41:06.189Z,26.97
2017-11-09T16:43:33.658Z,23.73
2017-11-09T16:46:01.169Z,27.83
2017-11-09T16:48:29.220Z,25.93
2017-11-09T16:50:56.931Z,22.87
2017-11-09T16:53:24.399Z,23.33
2017-11-09T16:55:55.799Z,21.20
2017-11-09T16:58:23.300Z,24.63
2017-11-09T17:00:50.804Z,28.00
2017-11-09T17:03:18.301Z,24.60
2017-11-09T17:05:45.807Z,21.57
2017-11-09T17:08:13.298Z,25.40
2017-11-09T17:10:42.687Z,29.60
2017-11-09T17:13:10.189Z,26.37
2017-11-09T17:15:37.673Z,24.00
2017-11-09T17:21:00.422Z,21.50
2017-11-09T17:23:27.910Z,26.23
2017-11-09T17:25:55.403Z,26.33
2017-11-09T17:28:22.905Z,22.23
2017-11-09T17:30:50.416Z,18.90
2017-11-09T17:33:17.901Z,20.70
2017-11-09T17:35:45.371Z,22.67
2017-11-09T17:38:12.870Z,20.93
2017-11-09T17:40:40.351Z,21.73
2017-11-09T17:43:08.019Z,20.03
2017-11-09T17:45:35.501Z,19.77
2017-11-09T17:48:02.973Z,20.13
2017-11-09T17:50:30.521Z,19.83
2017-11-09T17:52:58.021Z,20.23
2017-11-09T17:55:25.521Z,20.97
2017-11-09T17:57:52.997Z,20.90
2017-11-09T18:00:20.505Z,21.93
2017-11-09T18:02:48.001Z,23.10
2017-11-09T18:05:15.500Z,22.20
2017-11-09T18:07:43.020Z,24.00
2017-11-09T18:10:10.501Z,22.80
2017-11-09T18:12:38.485Z,21.57
2017-11-09T18:15:05.991Z,20.10
2017-11-09T18:17:33.468Z,20.00
2017-11-09T18:20:00.946Z,22.90
2017-11-09T18:22:28.578Z,20.23
2017-11-09T18:24:56.038Z,22.70
2017-11-09T18:27:23.493Z,19.50
2017-11-09T18:29:50.992Z,21.93
2017-11-09T18:32:18.477Z,23.00
2017-11-09T18:34:46.050Z,21.33
2017-11-09T18:37:13.531Z,21.33
2017-11-09T18:39:41.046Z,27.23
2017-11-09T18:42:08.533Z,22.53
2017-11-09T18:44:36.043Z,25.00
2017-11-09T18:47:03.529Z,30.03
2017-11-09T18:49:31.004Z,38.40
2017-11-09T18:51:58.514Z,26.60
2017-11-09T18:54:26.022Z,28.63
2017-11-09T18:56:54.752Z,26.33
2017-11-09T18:59:24.126Z,24.67
2017-11-09T19:01:51.686Z,23.90
2017-11-09T19:04:19.170Z,22.60
2017-11-09T19:06:46.718Z,21.73
2017-11-09T19:09:14.242Z,29.07
2017-11-09T19:11:41.720Z,25.20
2017-11-09T19:14:09.211Z,24.20
2017-11-09T19:16:36.730Z,23.67
2017-11-09T19:19:04.297Z,24.23
2017-11-09T19:21:31.927Z,21.83
2017-11-09T19:23:59.416Z,24.53
2017-11-09T19:26:28.510Z,22.50
2017-11-09T19:28:57.512Z,22.87
2017-11-09T19:31:25.004Z,26.67
2017-11-09T19:33:52.611Z,27.13
2017-11-09T19:36:20.114Z,30.17
2017-11-09T19:38:47.651Z,32.37
2017-11-09T19:41:15.169Z,30.30
2017-11-09T19:43:42.679Z,37.50
2017-11-09T19:46:10.156Z,37.33
2017-11-09T19:48:41.115Z,26.77
2017-11-09T19:51:08.608Z,30.00
2017-11-09T19:53:36.130Z,28.27
2017-11-09T19:56:03.657Z,24.57
2017-11-09T19:58:31.188Z,26.80
2017-11-09T20:00:58.712Z,24.93
2017-11-09T20:03:26.249Z,24.17
2017-11-09T20:05:53.763Z,28.47
2017-11-09T20:08:21.247Z,26.70
2017-11-09T20:10:48.720Z,27.80
2017-11-09T20:13:16.352Z,25.37
2017-11-09T20:15:43.813Z,20.50
2017-11-09T20:18:11.293Z,25.33
2017-11-09T20:20:38.782Z,26.93
2017-11-09T20:23:06.247Z,25.67
2017-11-09T20:25:33.767Z,25.27
2017-11-09T20:28:01.286Z,24.73
2017-11-09T20:30:28.831Z,24.10
2017-11-09T20:32:58.840Z,39.67
2017-11-09T20:35:26.325Z,23.57
2017-11-09T20:37:59.406Z,22.03
2017-11-09T20:40:27.807Z,22.03
2017-11-09T20:42:55.295Z,23.60
2017-11-09T20:45:22.778Z,26.10
2017-11-09T20:47:50.257Z,26.40
2017-11-09T20:50:21.470Z,20.17
2017-11-09T20:52:48.951Z,21.00
2017-11-09T20:55:16.478Z,24.80
2017-11-09T20:57:43.963Z,22.10
2017-11-09T21:00:11.521Z,22.90
2017-11-09T21:02:39.097Z,27.27
2017-11-09T21:05:06.623Z,23.57
2017-11-09T21:07:34.120Z,24.33
2017-11-09T21:10:01.639Z,25.20
2017-11-09T21:12:29.176Z,25.77
2017-11-09T21:14:57.903Z,25.40
2017-11-09T21:17:25.651Z,29.13
2017-11-09T21:19:53.227Z,24.70
2017-11-09T21:22:20.750Z,28.27
2017-11-09T21:24:48.279Z,25.97
2017-11-09T21:27:15.828Z,25.03
2017-11-09T21:29:43.358Z,26.70
2017-11-09T21:32:10.880Z,25.17
2017-11-09T21:34:38.430Z,24.57
2017-11-09T21:37:06.104Z,23.13
2017-11-09T21:39:33.614Z,22.17
2017-11-09T21:42:01.142Z,23.20
2017-11-09T21:44:29.632Z,24.27
2017-11-09T21:46:58.574Z,30.70
2017-11-09T21:49:26.101Z,23.10
2017-11-09T21:51:53.607Z,23.43
2017-11-09T21:54:21.119Z,24.17
2017-11-09T21:56:48.701Z,23.60
2017-11-09T21:59:16.200Z,25.53
2017-11-09T22:01:43.711Z,28.10
2017-11-09T22:04:11.208Z,25.20
2017-11-09T22:06:42.736Z,28.90
2017-11-09T22:09:10.240Z,26.77
2017-11-09T22:11:37.779Z,25.90
2017-11-09T22:14:05.288Z,25.90
2017-11-09T22:16:32.795Z,27.27
2017-11-09T22:19:00.293Z,24.50
2017-11-09T22:21:27.921Z,21.03
2017-11-09T22:23:55.490Z,24.50
2017-11-09T22:26:22.994Z,24.63
2017-11-09T22:28:50.485Z,24.17
2017-11-09T22:31:17.967Z,23.80
2017-11-09T22:33:45.474Z,22.20
2017-11-09T22:36:12.984Z,24.23
2017-11-09T22:38:40.492Z,22.00
2017-11-09T22:41:08.064Z,23.17
2017-11-09T22:43:35.619Z,25.20
2017-11-09T22:46:03.153Z,24.50
2017-11-09T22:48:30.654Z,24.00
2017-11-09T22:51:01.458Z,22.53
2017-11-09T22:53:28.962Z,21.23
2017-11-09T22:55:56.483Z,23.57
2017-11-09T22:58:24.012Z,24.20
2017-11-09T23:00:51.998Z,25.07
2017-11-09T23:03:19.497Z,21.40
2017-11-09T23:05:47.040Z,22.07
2017-11-09T23:08:14.568Z,23.37
2017-11-09T23:10:42.087Z,25.20
2017-11-09T23:13:10.386Z,24.27
2017-11-09T23:15:37.930Z,23.77
2017-11-09T23:18:05.455Z,23.47
2017-11-09T23:20:32.936Z,25.97
2017-11-09T23:23:00.468Z,24.53
2017-11-09T23:25:28.054Z,24.07
2017-11-09T23:27:55.601Z,22.63
2017-11-09T23:30:23.127Z,22.77
2017-11-09T23:32:50.666Z,26.80
2017-11-09T23:35:18.151Z,21.93
2017-11-09T23:37:45.681Z,24.03
2017-11-09T23:40:13.216Z,20.90
2017-11-09T23:42:43.604Z,22.63
2017-11-09T23:45:11.139Z,21.13
2017-11-09T23:47:38.653Z,20.23
2017-11-09T23:50:06.150Z,21.87
2017-11-09T23:52:33.642Z,23.60
2017-11-09T23:55:01.155Z,22.90
2017-11-09T23:57:28.736Z,22.70
2017-11-09T23:59:56.312Z,21.87
